createdAt,value
2023-04-04T00:00:21.042Z,0.68
2023-04-04T00:02:49.626Z,0.65
2023-04-04T00:05:16.482Z,0.62
2023-04-04T00:07:46.450Z,0.59
2023-04-04T00:10:13.195Z,0.56
2023-04-04T00:12:40.992Z,0.54
2023-04-04T00:15:08.022Z,0.52
2023-04-04T00:17:35.771Z,0.50
2023-04-04T00:20:04.291Z,0.47
2023-04-04T00:22:31.618Z,0.46
2023-04-04T00:24:59.289Z,0.44
2023-04-04T00:27:27.358Z,0.42
2023-04-04T00:29:55.788Z,0.40
2023-04-04T00:32:22.511Z,0.37
2023-04-04T00:34:53.780Z,0.36
2023-04-04T00:37:21.590Z,0.33
2023-04-04T00:39:49.318Z,0.29
2023-04-04T00:42:15.981Z,0.25
2023-04-04T00:44:42.560Z,0.23
2023-04-04T00:47:09.360Z,0.17
2023-04-04T00:49:38.400Z,0.15
2023-04-04T00:52:07.306Z,0.11
2023-04-04T00:54:35.504Z,0.07
2023-04-04T00:57:07.204Z,0.05
2023-04-04T00:59:34.093Z,0.04
2023-04-04T01:02:01.433Z,0.01
2023-04-04T01:04:30.602Z,-0.01
2023-04-04T01:06:57.523Z,-0.05
2023-04-04T01:09:26.113Z,-0.05
2023-04-04T01:11:53.625Z,-0.09
2023-04-04T01:14:20.340Z,-0.10
2023-04-04T01:16:49.645Z,-0.12
2023-04-04T01:19:24.752Z,-0.14
2023-04-04T01:21:53.714Z,-0.15
2023-04-04T01:24:22.390Z,-0.15
2023-04-04T01:26:54.726Z,-0.16
2023-04-04T01:29:21.736Z,-0.18
2023-04-04T01:32:04.214Z,-0.18
2023-04-04T01:34:48.695Z,-0.18
2023-04-04T01:37:41.343Z,-0.20
2023-04-04T01:40:17.092Z,-0.22
2023-04-04T01:42:47.599Z,-0.23
2023-04-04T01:45:14.249Z,-0.26
2023-04-04T01:47:42.193Z,-0.28
2023-04-04T01:50:13.839Z,-0.30
2023-04-04T01:52:40.426Z,-0.31
2023-04-04T01:55:09.492Z,-0.33
2023-04-04T01:57:36.428Z,-0.34
2023-04-04T02:00:05.220Z,-0.35
2023-04-04T02:02:42.581Z,-0.39
2023-04-04T02:05:10.532Z,-0.39
2023-04-04T02:07:37.351Z,-0.40
2023-04-04T02:10:11.207Z,-0.42
2023-04-04T02:12:42.322Z,-0.45
2023-04-04T02:15:09.411Z,-0.47
2023-04-04T02:17:36.017Z,-0.50
2023-04-04T02:20:03.745Z,-0.50
2023-04-04T02:22:30.512Z,-0.52
2023-04-04T02:24:57.907Z,-0.53
2023-04-04T02:27:24.855Z,-0.52
2023-04-04T02:29:51.531Z,-0.53
2023-04-04T02:32:18.441Z,-0.55
2023-04-04T02:34:45.823Z,-0.55
2023-04-04T02:37:12.712Z,-0.57
2023-04-04T02:39:39.491Z,-0.58
2023-04-04T02:42:06.156Z,-0.58
2023-04-04T02:44:32.654Z,-0.59
2023-04-04T02:46:59.726Z,-0.59
2023-04-04T02:49:29.819Z,-0.60
2023-04-04T02:51:57.702Z,-0.60
2023-04-04T02:54:27.471Z,-0.62
2023-04-04T02:56:54.118Z,-0.63
2023-04-04T02:59:21.182Z,-0.64
2023-04-04T03:01:47.956Z,-0.63
2023-04-04T03:04:14.702Z,-0.63
2023-04-04T03:06:43.332Z,-0.63
2023-04-04T03:09:10.937Z,-0.64
2023-04-04T03:11:37.571Z,-0.65
2023-04-04T03:14:06.671Z,-0.69
2023-04-04T03:16:41.882Z,-0.72
2023-04-04T03:19:09.379Z,-0.74
2023-04-04T03:21:36.408Z,-0.78
2023-04-04T03:24:03.574Z,-0.80
2023-04-04T03:26:30.335Z,-0.83
2023-04-04T03:28:58.714Z,-0.85
2023-04-04T03:31:26.626Z,-0.87
2023-04-04T03:33:53.128Z,-0.90
2023-04-04T03:36:22.746Z,-0.92
2023-04-04T03:38:50.703Z,-0.94
2023-04-04T03:41:17.214Z,-0.95
2023-04-04T03:43:45.353Z,-0.95
2023-04-04T03:46:12.596Z,-0.94
2023-04-04T03:48:39.955Z,-0.95
2023-04-04T03:51:09.563Z,-0.95
2023-04-04T03:53:37.523Z,-0.97
2023-04-04T03:56:04.392Z,-0.98
2023-04-04T03:58:31.100Z,-0.98
2023-04-04T04:00:57.666Z,-0.97
2023-04-04T04:03:28.166Z,-0.95
2023-04-04T04:05:55.710Z,-0.98
2023-04-04T04:08:23.945Z,-0.99
2023-04-04T04:10:51.814Z,-1.03
2023-04-04T04:13:19.812Z,-1.04
2023-04-04T04:15:46.621Z,-1.05
2023-04-04T04:18:18.913Z,-1.05
2023-04-04T04:20:45.753Z,-1.05
2023-04-04T04:23:12.408Z,-1.05
2023-04-04T04:25:39.925Z,-1.05
2023-04-04T04:28:14.489Z,-1.03
2023-04-04T04:30:41.861Z,-1.02
2023-04-04T04:33:09.308Z,-1.01
2023-04-04T04:35:46.757Z,-1.02
2023-04-04T04:38:13.549Z,-1.01
2023-04-04T04:40:41.213Z,-0.99
2023-04-04T04:43:17.489Z,-0.98
2023-04-04T04:45:45.009Z,-0.97
2023-04-04T04:48:13.080Z,-0.95
2023-04-04T04:50:47.697Z,-0.92
2023-04-04T04:53:19.232Z,-0.90
2023-04-04T04:55:47.264Z,-0.88
2023-04-04T04:58:14.434Z,-0.85
2023-04-04T05:00:45.870Z,-0.82
2023-04-04T05:03:14.142Z,-0.80
2023-04-04T05:05:47.804Z,-0.77
2023-04-04T05:08:15.892Z,-0.73
2023-04-04T05:11:01.572Z,-0.69
2023-04-04T05:13:30.755Z,-0.66
2023-04-04T05:15:58.141Z,-0.63
2023-04-04T05:18:26.427Z,-0.63
2023-04-04T05:20:54.779Z,-0.61
2023-04-04T05:23:24.336Z,-0.57
2023-04-04T05:25:55.702Z,-0.53
2023-04-04T05:28:26.583Z,-0.49
2023-04-04T05:30:58.655Z,-0.39
2023-04-04T05:33:28.823Z,-0.34
2023-04-04T05:36:05.611Z,-0.29
2023-04-04T05:38:35.272Z,-0.23
2023-04-04T05:41:01.837Z,-0.17
2023-04-04T05:43:32.073Z,-0.13
2023-04-04T05:46:07.511Z,-0.08
2023-04-04T05:48:43.765Z,-0.05
2023-04-04T05:51:11.273Z,-0.02
2023-04-04T05:53:59.708Z,-0.01
2023-04-04T05:56:32.291Z,0.01
2023-04-04T05:59:00.262Z,0.02
2023-04-04T06:01:30.086Z,0.03
2023-04-04T06:04:00.693Z,0.03
2023-04-04T06:06:27.577Z,0.06
2023-04-04T06:08:54.499Z,0.09
2023-04-04T06:11:22.985Z,0.13
2023-04-04T06:13:51.550Z,0.19
2023-04-04T06:16:20.031Z,0.25
2023-04-04T06:18:48.440Z,0.32
2023-04-04T06:21:15.062Z,0.37
2023-04-04T06:23:41.754Z,0.45
2023-04-04T06:26:08.521Z,0.50
2023-04-04T06:28:36.638Z,0.56
2023-04-04T06:31:06.897Z,0.64
2023-04-04T06:33:33.497Z,0.72
2023-04-04T06:36:01.371Z,0.81
2023-04-04T06:38:29.413Z,0.89
2023-04-04T06:40:58.320Z,0.97
2023-04-04T06:43:25.696Z,1.05
2023-04-04T06:45:52.662Z,1.12
2023-04-04T06:48:20.806Z,1.22
2023-04-04T06:50:47.516Z,1.28
2023-04-04T06:53:16.391Z,1.35
2023-04-04T06:55:43.932Z,1.43
2023-04-04T06:58:10.457Z,1.52
2023-04-04T07:00:37.218Z,1.57
2023-04-04T07:03:04.213Z,1.63
2023-04-04T07:05:32.318Z,1.69
2023-04-04T07:07:59.550Z,1.76
2023-04-04T07:10:26.153Z,1.84
2023-04-04T07:12:52.804Z,1.93
2023-04-04T07:15:19.366Z,1.99
2023-04-04T07:17:45.927Z,2.08
2023-04-04T07:20:13.352Z,2.18
2023-04-04T07:22:40.885Z,2.26
2023-04-04T07:25:08.233Z,2.36
2023-04-04T07:27:34.764Z,2.43
2023-04-04T07:30:01.530Z,2.49
2023-04-04T07:32:29.444Z,2.55
2023-04-04T07:34:55.990Z,2.58
2023-04-04T07:37:22.652Z,2.63
2023-04-04T07:39:50.075Z,2.67
2023-04-04T07:42:22.892Z,2.73
2023-04-04T07:44:50.533Z,2.78
2023-04-04T07:47:17.948Z,2.81
2023-04-04T07:49:44.798Z,2.84
2023-04-04T07:52:11.322Z,2.88
2023-04-04T07:54:38.198Z,2.91
2023-04-04T07:57:09.788Z,2.95
2023-04-04T07:59:37.044Z,3.00
2023-04-04T08:02:03.633Z,3.04
2023-04-04T08:04:30.368Z,3.09
2023-04-04T08:06:56.887Z,3.14
2023-04-04T08:09:23.439Z,3.21
2023-04-04T08:11:49.969Z,3.27
2023-04-04T08:14:16.576Z,3.32
2023-04-04T08:16:43.122Z,3.35
2023-04-04T08:19:09.791Z,3.42
2023-04-04T08:21:36.517Z,3.50
2023-04-04T08:24:03.109Z,3.57
2023-04-04T08:26:30.578Z,3.62
2023-04-04T08:28:57.169Z,3.67
2023-04-04T08:31:24.047Z,3.73
2023-04-04T08:33:50.771Z,3.75
2023-04-04T08:36:17.852Z,3.76
2023-04-04T08:38:44.676Z,3.77
2023-04-04T08:41:13.223Z,3.82
2023-04-04T08:43:41.641Z,3.83
2023-04-04T08:46:11.601Z,3.88
2023-04-04T08:48:41.698Z,3.95
2023-04-04T08:51:10.868Z,4.02
2023-04-04T08:53:37.761Z,4.07
2023-04-04T08:56:04.503Z,4.14
2023-04-04T08:58:31.122Z,4.20
2023-04-04T09:00:57.993Z,4.29
2023-04-04T09:03:26.698Z,4.40
2023-04-04T09:05:55.361Z,4.49
2023-04-04T09:08:24.697Z,4.56
2023-04-04T09:10:52.873Z,4.61
2023-04-04T09:13:19.913Z,4.69
2023-04-04T09:15:57.501Z,4.83
2023-04-04T09:18:24.064Z,4.96
2023-04-04T09:20:50.818Z,5.00
2023-04-04T09:23:20.287Z,4.99
2023-04-04T09:26:03.223Z,4.99
2023-04-04T09:28:31.838Z,4.98
2023-04-04T09:31:01.020Z,4.97
2023-04-04T09:33:28.040Z,5.00
2023-04-04T09:35:59.006Z,5.06
2023-04-04T09:38:26.864Z,5.15
2023-04-04T09:40:55.160Z,5.22
2023-04-04T09:43:24.354Z,5.29
2023-04-04T09:45:52.103Z,5.44
2023-04-04T09:48:33.269Z,5.57
2023-04-04T09:51:00.268Z,5.64
2023-04-04T09:53:27.781Z,5.74
2023-04-04T09:55:55.459Z,5.87
2023-04-04T09:58:29.353Z,6.00
2023-04-04T10:00:59.139Z,6.15
2023-04-04T10:03:26.237Z,6.25
2023-04-04T10:06:07.824Z,6.26
2023-04-04T10:08:35.411Z,6.23
2023-04-04T10:11:10.575Z,6.16
2023-04-04T10:13:41.278Z,6.16
2023-04-04T10:16:09.063Z,6.15
2023-04-04T10:18:36.939Z,6.16
2023-04-04T10:21:15.365Z,6.11
2023-04-04T10:23:45.450Z,6.17
2023-04-04T10:26:13.007Z,6.27
2023-04-04T10:28:39.963Z,6.35
2023-04-04T10:31:19.875Z,6.34
2023-04-04T10:34:21.947Z,6.32
2023-04-04T10:36:58.259Z,6.40
2023-04-04T10:39:36.990Z,6.48
2023-04-04T10:42:06.063Z,6.52
2023-04-04T10:44:34.192Z,6.51
2023-04-04T10:47:23.689Z,6.52
2023-04-04T10:49:51.816Z,6.50
2023-04-04T10:52:19.901Z,6.51
2023-04-04T10:54:49.394Z,6.53
2023-04-04T10:57:16.366Z,6.57
2023-04-04T11:00:08.956Z,6.61
2023-04-04T11:02:58.100Z,6.68
2023-04-04T11:05:34.216Z,6.71
2023-04-04T11:08:08.539Z,6.76
2023-04-04T11:10:41.611Z,6.84
2023-04-04T11:13:16.210Z,6.95
2023-04-04T11:15:47.693Z,7.05
2023-04-04T11:18:31.468Z,7.14
2023-04-04T11:21:03.661Z,7.22
2023-04-04T11:23:48.642Z,7.26
2023-04-04T11:26:20.119Z,7.32
2023-04-04T11:28:48.492Z,7.28
2023-04-04T11:31:18.446Z,7.28
2023-04-04T11:34:00.358Z,7.34
2023-04-04T11:36:35.843Z,7.47
2023-04-04T11:39:30.396Z,7.58
2023-04-04T11:42:08.978Z,7.76
2023-04-04T11:44:43.120Z,7.92
2023-04-04T11:47:11.715Z,8.12
2023-04-04T11:49:41.175Z,8.33
2023-04-04T11:52:16.446Z,8.51
2023-04-04T11:54:45.035Z,8.61
2023-04-04T11:57:13.030Z,8.67
2023-04-04T11:59:41.468Z,8.74
2023-04-04T12:02:12.194Z,8.78
2023-04-04T12:04:43.584Z,8.81
2023-04-04T12:07:10.863Z,8.83
2023-04-04T12:09:38.442Z,8.91
2023-04-04T12:12:05.181Z,8.98
2023-04-04T12:14:33.057Z,9.06
2023-04-04T12:17:00.130Z,9.16
2023-04-04T12:19:29.054Z,9.30
2023-04-04T12:21:57.784Z,9.43
2023-04-04T12:24:24.549Z,9.52
2023-04-04T12:26:52.916Z,9.44
2023-04-04T12:29:22.768Z,9.33
2023-04-04T12:31:50.690Z,9.26
2023-04-04T12:37:02.696Z,9.35
2023-04-04T12:39:29.932Z,9.39
2023-04-04T12:42:03.503Z,9.42
2023-04-04T12:44:35.581Z,9.48
2023-04-04T12:47:05.008Z,9.50
2023-04-04T12:49:40.138Z,9.53
2023-04-04T12:52:08.951Z,9.59
2023-04-04T12:54:39.952Z,9.72
2023-04-04T12:57:07.538Z,9.94
2023-04-04T12:59:37.340Z,10.16
2023-04-04T13:02:07.891Z,10.33
2023-04-04T13:04:34.819Z,10.33
2023-04-04T13:07:02.773Z,10.28
2023-04-04T13:09:29.428Z,10.27
2023-04-04T13:11:56.604Z,10.23
2023-04-04T13:14:23.087Z,10.09
2023-04-04T13:17:06.254Z,10.04
2023-04-04T13:19:32.915Z,9.90
2023-04-04T13:22:02.642Z,9.79
2023-04-04T13:24:29.259Z,9.77
2023-04-04T13:26:56.930Z,9.72
2023-04-04T13:29:25.040Z,9.69
2023-04-04T13:31:53.259Z,9.68
2023-04-04T13:34:26.871Z,9.76
2023-04-04T13:36:56.190Z,9.77
2023-04-04T13:39:22.871Z,9.66
2023-04-04T13:41:50.177Z,9.60
2023-04-04T13:44:16.744Z,9.52
2023-04-04T13:46:43.658Z,9.39
2023-04-04T13:49:11.021Z,9.27
2023-04-04T13:51:38.330Z,9.19
2023-04-04T13:54:05.071Z,9.07
2023-04-04T13:56:31.582Z,8.96
2023-04-04T13:58:58.126Z,8.84
2023-04-04T14:01:24.822Z,8.73
2023-04-04T14:03:51.488Z,8.70
2023-04-04T14:06:17.980Z,8.71
2023-04-04T14:08:45.612Z,8.72
2023-04-04T14:11:13.244Z,8.69
2023-04-04T14:13:39.876Z,8.67
2023-04-04T14:16:08.396Z,8.70
2023-04-04T14:18:35.265Z,8.71
2023-04-04T14:21:03.058Z,8.74
2023-04-04T14:23:32.920Z,8.78
2023-04-04T14:25:59.761Z,8.82
2023-04-04T14:28:28.215Z,8.85
2023-04-04T14:30:54.754Z,8.88
2023-04-04T14:33:22.179Z,8.89
2023-04-04T14:35:48.728Z,8.92
2023-04-04T14:38:16.128Z,8.95
2023-04-04T14:40:42.959Z,8.95
2023-04-04T14:43:09.560Z,8.92
2023-04-04T14:45:36.280Z,8.87
2023-04-04T14:48:02.709Z,8.80
2023-04-04T14:50:29.272Z,8.78
2023-04-04T14:52:56.651Z,8.76
2023-04-04T14:55:23.766Z,8.77
2023-04-04T14:58:02.059Z,8.77
2023-04-04T15:00:30.422Z,8.79
2023-04-04T15:02:57.101Z,8.78
2023-04-04T15:05:25.102Z,8.76
2023-04-04T15:07:51.612Z,8.74
2023-04-04T15:10:18.210Z,8.71
2023-04-04T15:12:44.713Z,8.70
2023-04-04T15:15:13.177Z,8.71
2023-04-04T15:17:40.505Z,8.73
2023-04-04T15:20:08.694Z,8.74
2023-04-04T15:22:36.364Z,8.76
2023-04-04T15:25:02.877Z,8.75
2023-04-04T15:27:29.334Z,8.74
2023-04-04T15:29:55.890Z,8.71
2023-04-04T15:32:22.512Z,8.70
2023-04-04T15:34:49.051Z,8.70
2023-04-04T15:37:16.045Z,8.71
2023-04-04T15:39:52.343Z,8.72
2023-04-04T15:42:20.665Z,8.72
2023-04-04T15:44:47.378Z,8.73
2023-04-04T15:47:14.828Z,8.76
2023-04-04T15:49:41.354Z,8.81
2023-04-04T15:52:07.913Z,8.86
2023-04-04T15:54:34.395Z,8.89
2023-04-04T15:57:01.662Z,8.96
2023-04-04T15:59:31.512Z,9.08
2023-04-04T16:01:58.628Z,9.27
2023-04-04T16:04:25.182Z,9.59
2023-04-04T16:06:51.973Z,10.20
2023-04-04T16:09:18.578Z,11.27
2023-04-04T16:11:45.202Z,12.17
2023-04-04T16:14:12.415Z,12.22
2023-04-04T16:16:40.547Z,12.44
2023-04-04T16:19:07.564Z,13.43
2023-04-04T16:21:34.364Z,14.61
2023-04-04T16:24:00.959Z,15.48
2023-04-04T16:26:27.588Z,16.22
2023-04-04T16:28:54.333Z,16.91
2023-04-04T16:31:20.975Z,17.77
2023-04-04T16:33:47.710Z,18.24
2023-04-04T16:36:14.472Z,18.21
2023-04-04T16:38:41.231Z,17.22
2023-04-04T16:41:07.824Z,16.54
2023-04-04T16:43:34.324Z,16.10
2023-04-04T16:46:00.984Z,15.38
2023-04-04T16:48:27.521Z,14.75
2023-04-04T16:50:54.891Z,14.21
2023-04-04T16:53:21.505Z,13.74
2023-04-04T16:55:48.040Z,13.25
2023-04-04T16:58:14.632Z,12.84
2023-04-04T17:00:41.870Z,12.44
2023-04-04T17:03:08.769Z,12.06
2023-04-04T17:05:35.273Z,11.75
2023-04-04T17:08:01.814Z,11.50
2023-04-04T17:10:28.472Z,11.27
2023-04-04T17:12:55.504Z,11.03
2023-04-04T17:15:22.151Z,10.86
2023-04-04T17:17:48.762Z,10.71
2023-04-04T17:20:19.192Z,10.56
2023-04-04T17:22:47.311Z,10.42
2023-04-04T17:25:13.906Z,10.29
2023-04-04T17:27:40.495Z,10.17
2023-04-04T17:30:08.516Z,10.05
2023-04-04T17:32:35.164Z,9.91
2023-04-04T17:35:01.899Z,9.75
2023-04-04T17:37:29.095Z,9.61
2023-04-04T17:39:55.977Z,9.47
2023-04-04T17:42:22.532Z,9.34
2023-04-04T17:44:49.097Z,9.22
2023-04-04T17:47:16.096Z,9.12
2023-04-04T17:49:42.744Z,9.04
2023-04-04T17:52:09.292Z,8.93
2023-04-04T17:54:36.444Z,8.86
2023-04-04T17:57:03.541Z,8.78
2023-04-04T17:59:30.292Z,8.72
2023-04-04T18:01:57.203Z,8.66
2023-04-04T18:04:25.468Z,8.59
2023-04-04T18:06:52.391Z,8.52
2023-04-04T18:09:18.956Z,8.46
2023-04-04T18:11:45.656Z,8.38
2023-04-04T18:14:12.622Z,8.30
2023-04-04T18:16:41.041Z,8.22
2023-04-04T18:19:09.633Z,8.14
2023-04-04T18:21:37.071Z,8.05
2023-04-04T18:24:05.607Z,7.96
2023-04-04T18:26:32.182Z,7.86
2023-04-04T18:28:58.902Z,7.77
2023-04-04T18:31:28.751Z,7.69
2023-04-04T18:33:56.694Z,7.61
2023-04-04T18:36:23.386Z,7.52
2023-04-04T18:38:50.160Z,7.46
2023-04-04T18:41:17.548Z,7.38
2023-04-04T18:43:44.400Z,7.31
2023-04-04T18:46:11.031Z,7.25
2023-04-04T18:48:37.761Z,7.19
2023-04-04T18:51:04.500Z,7.13
2023-04-04T18:53:31.279Z,7.05
2023-04-04T18:55:58.409Z,6.98
2023-04-04T18:58:25.851Z,6.91
2023-04-04T19:00:55.672Z,6.85
2023-04-04T19:03:22.487Z,6.80
2023-04-04T19:05:49.549Z,6.74
2023-04-04T19:08:17.429Z,6.67
2023-04-04T19:10:47.360Z,6.61
2023-04-04T19:13:15.264Z,6.57
2023-04-04T19:15:42.808Z,6.54
2023-04-04T19:18:10.342Z,6.47
2023-04-04T19:20:37.211Z,6.41
2023-04-04T19:23:03.772Z,6.38
2023-04-04T19:25:30.540Z,6.32
2023-04-04T19:27:57.136Z,6.28
2023-04-04T19:30:41.043Z,6.25
2023-04-04T19:33:10.255Z,6.19
2023-04-04T19:36:07.459Z,6.13
2023-04-04T19:38:35.926Z,6.09
2023-04-04T19:41:12.859Z,6.00
2023-04-04T19:43:41.937Z,5.92
2023-04-04T19:46:10.737Z,5.86
2023-04-04T19:48:51.877Z,5.79
2023-04-04T19:51:18.543Z,5.73
2023-04-04T19:53:50.580Z,5.66
2023-04-04T19:56:19.427Z,5.62
2023-04-04T19:58:48.161Z,5.55
2023-04-04T20:01:22.824Z,5.49
2023-04-04T20:03:49.630Z,5.44
2023-04-04T20:06:28.461Z,5.39
2023-04-04T20:08:57.036Z,5.36
2023-04-04T20:11:34.008Z,5.31
2023-04-04T20:14:07.909Z,5.26
2023-04-04T20:16:35.155Z,5.20
2023-04-04T20:19:03.678Z,5.15
2023-04-04T20:21:33.852Z,5.09
2023-04-04T20:24:04.285Z,5.03
2023-04-04T20:27:05.893Z,4.96
2023-04-04T20:29:35.475Z,4.90
2023-04-04T20:32:09.613Z,4.87
2023-04-04T20:34:47.721Z,4.83
2023-04-04T20:37:21.607Z,4.79
2023-04-04T20:39:52.986Z,4.78
2023-04-04T20:42:40.319Z,4.76
2023-04-04T20:45:10.053Z,4.70
2023-04-04T20:47:45.611Z,4.66
2023-04-04T20:50:18.096Z,4.62
2023-04-04T20:52:50.179Z,4.53
2023-04-04T20:55:22.343Z,4.45
2023-04-04T20:57:50.807Z,4.37
2023-04-04T21:00:39.062Z,4.30
2023-04-04T21:03:11.726Z,4.25
2023-04-04T21:05:40.197Z,4.19
2023-04-04T21:08:32.733Z,4.16
2023-04-04T21:10:59.826Z,4.12
2023-04-04T21:13:41.397Z,4.06
2023-04-04T21:16:13.416Z,4.02
2023-04-04T21:18:44.622Z,3.96
2023-04-04T21:21:16.566Z,3.92
2023-04-04T21:23:48.738Z,3.86
2023-04-04T21:26:35.169Z,3.82
2023-04-04T21:29:07.204Z,3.77
2023-04-04T21:31:36.290Z,3.69
2023-04-04T21:34:24.293Z,3.63
2023-04-04T21:36:55.913Z,3.57
2023-04-04T21:39:24.624Z,3.52
2023-04-04T21:42:01.316Z,3.47
2023-04-04T21:44:28.528Z,3.41
2023-04-04T21:46:55.602Z,3.36
2023-04-04T21:49:23.057Z,3.32
2023-04-04T21:51:50.081Z,3.27
2023-04-04T21:54:16.768Z,3.21
2023-04-04T21:56:44.258Z,3.17
2023-04-04T21:59:10.910Z,3.12
2023-04-04T22:01:38.386Z,3.06
2023-04-04T22:04:05.279Z,3.04
2023-04-04T22:06:31.743Z,2.98
2023-04-04T22:08:59.241Z,2.93
2023-04-04T22:11:27.329Z,2.87
2023-04-04T22:14:03.831Z,2.82
2023-04-04T22:16:31.171Z,2.78
2023-04-04T22:18:58.904Z,2.75
2023-04-04T22:21:28.432Z,2.72
2023-04-04T22:24:01.029Z,2.67
2023-04-04T22:26:34.676Z,2.60
2023-04-04T22:29:04.014Z,2.55
2023-04-04T22:31:31.321Z,2.49
2023-04-04T22:33:58.112Z,2.45
2023-04-04T22:36:25.078Z,2.40
2023-04-04T22:38:56.492Z,2.38
2023-04-04T22:41:28.498Z,2.33
2023-04-04T22:43:56.573Z,2.29
2023-04-04T22:46:25.853Z,2.25
2023-04-04T22:49:04.481Z,2.22
2023-04-04T22:51:34.851Z,2.19
2023-04-04T22:54:02.502Z,2.14
2023-04-04T22:56:29.097Z,2.12
2023-04-04T22:58:55.936Z,2.07
2023-04-04T23:01:22.544Z,2.06
2023-04-04T23:03:49.319Z,2.02
2023-04-04T23:06:15.983Z,1.97
2023-04-04T23:08:46.666Z,1.94
2023-04-04T23:11:13.496Z,1.92
2023-04-04T23:13:40.389Z,1.89
2023-04-04T23:16:07.457Z,1.85
2023-04-04T23:18:34.030Z,1.85
2023-04-04T23:21:00.561Z,1.85
2023-04-04T23:23:27.165Z,1.83
2023-04-04T23:25:54.294Z,1.79
2023-04-04T23:28:20.818Z,1.76
2023-04-04T23:30:47.356Z,1.73
2023-04-04T23:33:14.587Z,1.69
2023-04-04T23:35:41.310Z,1.66
2023-04-04T23:38:13.263Z,1.64
2023-04-04T23:40:40.307Z,1.63
2023-04-04T23:43:07.015Z,1.59
2023-04-04T23:45:39.574Z,1.57
2023-04-04T23:48:06.378Z,1.53
2023-04-04T23:50:32.966Z,1.46
2023-04-04T23:52:59.546Z,1.44
2023-04-04T23:55:27.059Z,1.40
2023-04-04T23:57:56.220Z,1.38
